sensor_id;sensor_type;location;lat;lon;timestamp;P1;durP1;ratioP1;P2;durP2;ratioP2
3121;SDS011;1571;52.524;14.104;2022-11-15T00:00:26;228.07;;;41.50;;
3121;SDS011;1571;52.524;14.104;2022-11-15T00:03:13;357.73;;;47.53;;
3121;SDS011;1571;52.524;14.104;2022-11-15T00:06:01;253.17;;;40.87;;
3121;SDS011;1571;52.524;14.104;2022-11-15T00:08:49;296.07;;;42.43;;
3121;SDS011;1571;52.524;14.104;2022-11-15T00:11:37;205.23;;;37.87;;
3121;SDS011;1571;52.524;14.104;2022-11-15T00:14:23;211.93;;;42.43;;
3121;SDS011;1571;52.524;14.104;2022-11-15T00:17:10;173.57;;;35.40;;
3121;SDS011;1571;52.524;14.104;2022-11-15T00:19:57;174.37;;;37.27;;
3121;SDS011;1571;52.524;14.104;2022-11-15T00:22:44;165.77;;;36.97;;
3121;SDS011;1571;52.524;14.104;2022-11-15T00:25:31;201.17;;;38.90;;
3121;SDS011;1571;52.524;14.104;2022-11-15T00:28:19;126.30;;;31.20;;
3121;SDS011;1571;52.524;14.104;2022-11-15T00:31:08;147.10;;;31.50;;
3121;SDS011;1571;52.524;14.104;2022-11-15T00:33:58;156.50;;;32.13;;
3121;SDS011;1571;52.524;14.104;2022-11-15T00:36:44;109.87;;;32.53;;
3121;SDS011;1571;52.524;14.104;2022-11-15T00:39:31;125.80;;;28.87;;
3121;SDS011;1571;52.524;14.104;2022-11-15T00:42:18;121.90;;;30.17;;
3121;SDS011;1571;52.524;14.104;2022-11-15T00:45:07;146.67;;;32.13;;
3121;SDS011;1571;52.524;14.104;2022-11-15T00:47:54;98.53;;;30.00;;
3121;SDS011;1571;52.524;14.104;2022-11-15T00:50:41;62.83;;;27.63;;
3121;SDS011;1571;52.524;14.104;2022-11-15T00:53:28;64.53;;;27.90;;
3121;SDS011;1571;52.524;14.104;2022-11-15T00:56:15;66.73;;;24.57;;
3121;SDS011;1571;52.524;14.104;2022-11-15T00:59:02;86.10;;;28.93;;
3121;SDS011;1571;52.524;14.104;2022-11-15T01:01:50;95.97;;;30.43;;
3121;SDS011;1571;52.524;14.104;2022-11-15T01:04:37;76.00;;;25.97;;
3121;SDS011;1571;52.524;14.104;2022-11-15T01:07:23;58.90;;;27.30;;
3121;SDS011;1571;52.524;14.104;2022-11-15T01:10:10;60.73;;;24.10;;
3121;SDS011;1571;52.524;14.104;2022-11-15T01:12:57;67.90;;;25.50;;
3121;SDS011;1571;52.524;14.104;2022-11-15T01:15:44;47.27;;;24.30;;
3121;SDS011;1571;52.524;14.104;2022-11-15T01:18:32;69.87;;;24.70;;
3121;SDS011;1571;52.524;14.104;2022-11-15T01:21:19;56.50;;;24.23;;
3121;SDS011;1571;52.524;14.104;2022-11-15T01:24:07;43.13;;;23.53;;
3121;SDS011;1571;52.524;14.104;2022-11-15T01:26:53;57.20;;;25.33;;
3121;SDS011;1571;52.524;14.104;2022-11-15T01:29:40;79.70;;;26.73;;
3121;SDS011;1571;52.524;14.104;2022-11-15T01:32:26;54.93;;;23.80;;
3121;SDS011;1571;52.524;14.104;2022-11-15T01:35:15;44.70;;;22.67;;
3121;SDS011;1571;52.524;14.104;2022-11-15T01:38:01;44.67;;;21.53;;
3121;SDS011;1571;52.524;14.104;2022-11-15T01:40:48;64.47;;;23.30;;
3121;SDS011;1571;52.524;14.104;2022-11-15T01:43:36;56.63;;;24.43;;
3121;SDS011;1571;52.524;14.104;2022-11-15T01:46:27;54.90;;;23.73;;
3121;SDS011;1571;52.524;14.104;2022-11-15T01:49:17;43.97;;;21.80;;
3121;SDS011;1571;52.524;14.104;2022-11-15T01:52:08;47.90;;;22.20;;
3121;SDS011;1571;52.524;14.104;2022-11-15T01:55:00;50.77;;;22.10;;
3121;SDS011;1571;52.524;14.104;2022-11-15T01:57:52;62.73;;;25.37;;
3121;SDS011;1571;52.524;14.104;2022-11-15T02:00:41;52.50;;;23.20;;
3121;SDS011;1571;52.524;14.104;2022-11-15T02:03:30;49.90;;;19.67;;
3121;SDS011;1571;52.524;14.104;2022-11-15T02:06:23;44.57;;;23.20;;
3121;SDS011;1571;52.524;14.104;2022-11-15T02:09:11;38.13;;;21.13;;
3121;SDS011;1571;52.524;14.104;2022-11-15T02:11:59;35.70;;;19.77;;
3121;SDS011;1571;52.524;14.104;2022-11-15T02:14:46;32.17;;;20.37;;
3121;SDS011;1571;52.524;14.104;2022-11-15T02:17:41;37.67;;;22.07;;
3121;SDS011;1571;52.524;14.104;2022-11-15T02:20:48;32.50;;;20.83;;
3121;SDS011;1571;52.524;14.104;2022-11-15T02:23:57;32.17;;;22.00;;
3121;SDS011;1571;52.524;14.104;2022-11-15T02:27:22;33.70;;;20.00;;
3121;SDS011;1571;52.524;14.104;2022-11-15T02:30:25;28.80;;;19.30;;
3121;SDS011;1571;52.524;14.104;2022-11-15T02:33:24;37.80;;;23.80;;
3121;SDS011;1571;52.524;14.104;2022-11-15T02:36:22;36.80;;;22.03;;
3121;SDS011;1571;52.524;14.104;2022-11-15T02:39:18;35.90;;;22.63;;
3121;SDS011;1571;52.524;14.104;2022-11-15T02:42:13;31.43;;;20.70;;
3121;SDS011;1571;52.524;14.104;2022-11-15T02:45:24;39.03;;;22.00;;
3121;SDS011;1571;52.524;14.104;2022-11-15T02:48:15;59.83;;;25.70;;
3121;SDS011;1571;52.524;14.104;2022-11-15T02:51:03;78.27;;;24.77;;
3121;SDS011;1571;52.524;14.104;2022-11-15T02:53:50;61.27;;;24.47;;
3121;SDS011;1571;52.524;14.104;2022-11-15T02:56:37;94.07;;;25.43;;
3121;SDS011;1571;52.524;14.104;2022-11-15T02:59:37;75.70;;;27.77;;
3121;SDS011;1571;52.524;14.104;2022-11-15T03:02:44;366.77;;;51.97;;
3121;SDS011;1571;52.524;14.104;2022-11-15T03:05:49;127.97;;;32.67;;
3121;SDS011;1571;52.524;14.104;2022-11-15T03:08:45;267.37;;;38.73;;
3121;SDS011;1571;52.524;14.104;2022-11-15T03:11:41;237.77;;;35.33;;
3121;SDS011;1571;52.524;14.104;2022-11-15T03:14:33;250.70;;;38.07;;
3121;SDS011;1571;52.524;14.104;2022-11-15T03:17:23;289.40;;;43.47;;
3121;SDS011;1571;52.524;14.104;2022-11-15T03:20:14;262.67;;;42.00;;
3121;SDS011;1571;52.524;14.104;2022-11-15T03:23:04;164.80;;;37.67;;
3121;SDS011;1571;52.524;14.104;2022-11-15T03:25:54;183.40;;;36.60;;
3121;SDS011;1571;52.524;14.104;2022-11-15T03:28:44;196.17;;;37.33;;
3121;SDS011;1571;52.524;14.104;2022-11-15T03:31:37;211.30;;;35.20;;
3121;SDS011;1571;52.524;14.104;2022-11-15T03:34:37;165.17;;;34.37;;
3121;SDS011;1571;52.524;14.104;2022-11-15T03:37:30;143.23;;;33.00;;
3121;SDS011;1571;52.524;14.104;2022-11-15T03:40:23;165.50;;;31.93;;
3121;SDS011;1571;52.524;14.104;2022-11-15T03:43:22;156.47;;;38.30;;
3121;SDS011;1571;52.524;14.104;2022-11-15T03:46:16;87.00;;;29.10;;
3121;SDS011;1571;52.524;14.104;2022-11-15T03:49:11;115.03;;;31.50;;
3121;SDS011;1571;52.524;14.104;2022-11-15T03:52:02;154.47;;;33.60;;
3121;SDS011;1571;52.524;14.104;2022-11-15T03:54:52;110.77;;;33.73;;
3121;SDS011;1571;52.524;14.104;2022-11-15T03:57:41;126.17;;;38.63;;
3121;SDS011;1571;52.524;14.104;2022-11-15T04:00:28;58.50;;;29.00;;
3121;SDS011;1571;52.524;14.104;2022-11-15T04:03:15;57.03;;;28.00;;
3121;SDS011;1571;52.524;14.104;2022-11-15T04:06:01;53.20;;;26.97;;
3121;SDS011;1571;52.524;14.104;2022-11-15T04:08:48;66.13;;;29.50;;
3121;SDS011;1571;52.524;14.104;2022-11-15T04:11:36;54.07;;;28.57;;
3121;SDS011;1571;52.524;14.104;2022-11-15T04:14:23;88.80;;;30.30;;
3121;SDS011;1571;52.524;14.104;2022-11-15T04:17:09;72.03;;;27.50;;
3121;SDS011;1571;52.524;14.104;2022-11-15T04:19:56;68.40;;;28.57;;
3121;SDS011;1571;52.524;14.104;2022-11-15T04:23:01;93.80;;;28.20;;
3121;SDS011;1571;52.524;14.104;2022-11-15T04:26:08;65.37;;;27.10;;
3121;SDS011;1571;52.524;14.104;2022-11-15T04:28:59;60.20;;;28.27;;
3121;SDS011;1571;52.524;14.104;2022-11-15T04:32:04;63.90;;;28.60;;
3121;SDS011;1571;52.524;14.104;2022-11-15T04:34:52;45.43;;;26.57;;
3121;SDS011;1571;52.524;14.104;2022-11-15T04:37:38;40.13;;;25.83;;
3121;SDS011;1571;52.524;14.104;2022-11-15T04:40:32;60.13;;;29.73;;
3121;SDS011;1571;52.524;14.104;2022-11-15T04:43:19;60.07;;;27.67;;
3121;SDS011;1571;52.524;14.104;2022-11-15T04:46:07;49.87;;;28.67;;
3121;SDS011;1571;52.524;14.104;2022-11-15T04:48:54;44.67;;;27.57;;
3121;SDS011;1571;52.524;14.104;2022-11-15T04:51:44;55.23;;;27.80;;
3121;SDS011;1571;52.524;14.104;2022-11-15T04:54:31;48.40;;;27.67;;
3121;SDS011;1571;52.524;14.104;2022-11-15T04:57:17;47.73;;;26.63;;
3121;SDS011;1571;52.524;14.104;2022-11-15T05:00:05;72.93;;;30.00;;
3121;SDS011;1571;52.524;14.104;2022-11-15T05:02:55;60.30;;;25.37;;
3121;SDS011;1571;52.524;14.104;2022-11-15T05:06:00;41.33;;;23.10;;
3121;SDS011;1571;52.524;14.104;2022-11-15T05:08:47;75.60;;;29.27;;
3121;SDS011;1571;52.524;14.104;2022-11-15T05:11:34;53.13;;;25.77;;
3121;SDS011;1571;52.524;14.104;2022-11-15T05:14:20;113.97;;;29.60;;
3121;SDS011;1571;52.524;14.104;2022-11-15T05:17:08;50.00;;;26.47;;
3121;SDS011;1571;52.524;14.104;2022-11-15T05:19:55;49.63;;;26.53;;
3121;SDS011;1571;52.524;14.104;2022-11-15T05:22:42;47.93;;;26.17;;
3121;SDS011;1571;52.524;14.104;2022-11-15T05:25:29;41.13;;;25.03;;
3121;SDS011;1571;52.524;14.104;2022-11-15T05:28:15;39.83;;;25.57;;
3121;SDS011;1571;52.524;14.104;2022-11-15T05:31:03;35.70;;;24.50;;
3121;SDS011;1571;52.524;14.104;2022-11-15T05:33:51;36.60;;;23.33;;
3121;SDS011;1571;52.524;14.104;2022-11-15T05:36:40;42.10;;;26.60;;
3121;SDS011;1571;52.524;14.104;2022-11-15T05:39:29;37.57;;;24.10;;
3121;SDS011;1571;52.524;14.104;2022-11-15T05:42:16;37.90;;;26.27;;
3121;SDS011;1571;52.524;14.104;2022-11-15T05:45:04;36.03;;;24.23;;
3121;SDS011;1571;52.524;14.104;2022-11-15T05:47:54;36.37;;;24.43;;
3121;SDS011;1571;52.524;14.104;2022-11-15T05:50:43;38.40;;;27.03;;
3121;SDS011;1571;52.524;14.104;2022-11-15T05:53:33;39.00;;;25.03;;
3121;SDS011;1571;52.524;14.104;2022-11-15T05:56:21;37.27;;;25.60;;
3121;SDS011;1571;52.524;14.104;2022-11-15T05:59:08;39.60;;;27.17;;
3121;SDS011;1571;52.524;14.104;2022-11-15T06:01:56;39.03;;;26.17;;
3121;SDS011;1571;52.524;14.104;2022-11-15T06:04:43;39.00;;;25.60;;
3121;SDS011;1571;52.524;14.104;2022-11-15T06:07:30;39.73;;;27.33;;
3121;SDS011;1571;52.524;14.104;2022-11-15T06:10:18;38.43;;;25.30;;
3121;SDS011;1571;52.524;14.104;2022-11-15T06:13:05;37.53;;;24.20;;
3121;SDS011;1571;52.524;14.104;2022-11-15T06:15:54;34.97;;;22.93;;
3121;SDS011;1571;52.524;14.104;2022-11-15T06:18:41;35.80;;;22.57;;
3121;SDS011;1571;52.524;14.104;2022-11-15T06:21:28;34.80;;;23.47;;
3121;SDS011;1571;52.524;14.104;2022-11-15T06:24:17;29.80;;;21.53;;
3121;SDS011;1571;52.524;14.104;2022-11-15T06:27:05;33.47;;;21.63;;
3121;SDS011;1571;52.524;14.104;2022-11-15T06:29:52;34.63;;;20.40;;
3121;SDS011;1571;52.524;14.104;2022-11-15T06:32:39;34.40;;;22.97;;
3121;SDS011;1571;52.524;14.104;2022-11-15T06:35:26;41.70;;;28.80;;
3121;SDS011;1571;52.524;14.104;2022-11-15T06:38:12;40.93;;;25.17;;
3121;SDS011;1571;52.524;14.104;2022-11-15T06:41:00;33.80;;;25.90;;
3121;SDS011;1571;52.524;14.104;2022-11-15T06:43:49;35.90;;;23.13;;
3121;SDS011;1571;52.524;14.104;2022-11-15T06:46:36;33.53;;;22.10;;
3121;SDS011;1571;52.524;14.104;2022-11-15T06:49:22;29.93;;;22.00;;
3121;SDS011;1571;52.524;14.104;2022-11-15T06:52:09;28.90;;;21.30;;
3121;SDS011;1571;52.524;14.104;2022-11-15T06:54:55;29.30;;;20.53;;
3121;SDS011;1571;52.524;14.104;2022-11-15T06:57:48;30.80;;;22.00;;
3121;SDS011;1571;52.524;14.104;2022-11-15T07:00:37;29.40;;;21.53;;
3121;SDS011;1571;52.524;14.104;2022-11-15T07:03:24;35.17;;;19.87;;
3121;SDS011;1571;52.524;14.104;2022-11-15T07:06:10;31.93;;;21.07;;
3121;SDS011;1571;52.524;14.104;2022-11-15T07:08:57;33.17;;;21.40;;
3121;SDS011;1571;52.524;14.104;2022-11-15T07:11:44;28.93;;;19.87;;
3121;SDS011;1571;52.524;14.104;2022-11-15T07:14:30;30.43;;;19.83;;
3121;SDS011;1571;52.524;14.104;2022-11-15T07:17:18;30.27;;;22.27;;
3121;SDS011;1571;52.524;14.104;2022-11-15T07:20:07;29.43;;;19.77;;
3121;SDS011;1571;52.524;14.104;2022-11-15T07:22:59;31.30;;;23.53;;
3121;SDS011;1571;52.524;14.104;2022-11-15T07:25:46;35.87;;;22.10;;
3121;SDS011;1571;52.524;14.104;2022-11-15T07:28:33;37.33;;;22.10;;
3121;SDS011;1571;52.524;14.104;2022-11-15T07:31:21;35.67;;;21.30;;
3121;SDS011;1571;52.524;14.104;2022-11-15T07:34:09;29.37;;;18.63;;
3121;SDS011;1571;52.524;14.104;2022-11-15T07:36:56;29.27;;;19.27;;
3121;SDS011;1571;52.524;14.104;2022-11-15T07:39:43;27.07;;;19.97;;
3121;SDS011;1571;52.524;14.104;2022-11-15T07:42:30;32.87;;;23.83;;
3121;SDS011;1571;52.524;14.104;2022-11-15T07:45:39;31.37;;;22.40;;
3121;SDS011;1571;52.524;14.104;2022-11-15T07:48:26;51.87;;;24.90;;
3121;SDS011;1571;52.524;14.104;2022-11-15T07:51:29;23.70;;;18.30;;
3121;SDS011;1571;52.524;14.104;2022-11-15T07:54:16;31.27;;;20.87;;
3121;SDS011;1571;52.524;14.104;2022-11-15T07:57:02;36.13;;;24.20;;
3121;SDS011;1571;52.524;14.104;2022-11-15T07:59:52;34.80;;;22.40;;
3121;SDS011;1571;52.524;14.104;2022-11-15T08:02:38;32.53;;;22.47;;
3121;SDS011;1571;52.524;14.104;2022-11-15T08:05:25;28.40;;;20.77;;
3121;SDS011;1571;52.524;14.104;2022-11-15T08:08:14;33.53;;;22.60;;
3121;SDS011;1571;52.524;14.104;2022-11-15T08:11:00;29.93;;;21.53;;
3121;SDS011;1571;52.524;14.104;2022-11-15T08:13:47;38.43;;;25.37;;
3121;SDS011;1571;52.524;14.104;2022-11-15T08:16:34;34.27;;;23.50;;
3121;SDS011;1571;52.524;14.104;2022-11-15T08:19:20;34.80;;;25.20;;
3121;SDS011;1571;52.524;14.104;2022-11-15T08:22:07;44.60;;;26.23;;
3121;SDS011;1571;52.524;14.104;2022-11-15T08:24:55;41.77;;;29.60;;
3121;SDS011;1571;52.524;14.104;2022-11-15T08:27:42;37.87;;;23.80;;
3121;SDS011;1571;52.524;14.104;2022-11-15T08:30:29;42.40;;;29.57;;
3121;SDS011;1571;52.524;14.104;2022-11-15T08:33:21;42.63;;;28.23;;
3121;SDS011;1571;52.524;14.104;2022-11-15T08:36:10;48.53;;;29.77;;
3121;SDS011;1571;52.524;14.104;2022-11-15T08:38:59;43.90;;;31.10;;
3121;SDS011;1571;52.524;14.104;2022-11-15T08:41:47;46.30;;;32.77;;
3121;SDS011;1571;52.524;14.104;2022-11-15T08:44:34;42.40;;;30.13;;
3121;SDS011;1571;52.524;14.104;2022-11-15T08:47:21;43.00;;;33.13;;
3121;SDS011;1571;52.524;14.104;2022-11-15T08:50:08;48.13;;;31.10;;
3121;SDS011;1571;52.524;14.104;2022-11-15T08:52:54;43.20;;;30.70;;
3121;SDS011;1571;52.524;14.104;2022-11-15T08:55:41;42.10;;;32.17;;
3121;SDS011;1571;52.524;14.104;2022-11-15T08:58:29;42.97;;;29.83;;
3121;SDS011;1571;52.524;14.104;2022-11-15T09:01:17;44.03;;;32.17;;
3121;SDS011;1571;52.524;14.104;2022-11-15T09:04:05;39.70;;;29.10;;
3121;SDS011;1571;52.524;14.104;2022-11-15T09:06:51;41.47;;;28.70;;
3121;SDS011;1571;52.524;14.104;2022-11-15T09:09:38;39.93;;;28.17;;
3121;SDS011;1571;52.524;14.104;2022-11-15T09:12:25;40.67;;;31.87;;
3121;SDS011;1571;52.524;14.104;2022-11-15T09:15:13;40.50;;;29.87;;
3121;SDS011;1571;52.524;14.104;2022-11-15T09:18:01;38.70;;;29.10;;
3121;SDS011;1571;52.524;14.104;2022-11-15T09:20:48;39.40;;;28.33;;
3121;SDS011;1571;52.524;14.104;2022-11-15T09:23:34;41.33;;;28.40;;
3121;SDS011;1571;52.524;14.104;2022-11-15T09:26:21;36.30;;;27.40;;
3121;SDS011;1571;52.524;14.104;2022-11-15T09:29:08;35.27;;;27.27;;
3121;SDS011;1571;52.524;14.104;2022-11-15T09:31:56;35.87;;;26.67;;
3121;SDS011;1571;52.524;14.104;2022-11-15T09:34:43;33.83;;;25.17;;
3121;SDS011;1571;52.524;14.104;2022-11-15T09:37:31;32.80;;;26.20;;
3121;SDS011;1571;52.524;14.104;2022-11-15T09:40:18;35.03;;;27.10;;
3121;SDS011;1571;52.524;14.104;2022-11-15T09:43:17;37.33;;;26.17;;
3121;SDS011;1571;52.524;14.104;2022-11-15T09:46:15;33.53;;;24.27;;
3121;SDS011;1571;52.524;14.104;2022-11-15T09:49:09;32.43;;;24.67;;
3121;SDS011;1571;52.524;14.104;2022-11-15T09:52:02;33.60;;;24.37;;
3121;SDS011;1571;52.524;14.104;2022-11-15T09:54:32;29.90;;;23.63;;
3121;SDS011;1571;52.524;14.104;2022-11-15T09:57:21;31.10;;;24.60;;
3121;SDS011;1571;52.524;14.104;2022-11-15T10:00:09;33.50;;;24.47;;
3121;SDS011;1571;52.524;14.104;2022-11-15T10:03:08;31.70;;;23.30;;
3121;SDS011;1571;52.524;14.104;2022-11-15T10:05:41;28.87;;;23.07;;
3121;SDS011;1571;52.524;14.104;2022-11-15T10:08:13;29.97;;;22.80;;
3121;SDS011;1571;52.524;14.104;2022-11-15T10:10:58;27.47;;;22.63;;
3121;SDS011;1571;52.524;14.104;2022-11-15T10:13:49;27.40;;;21.57;;
3121;SDS011;1571;52.524;14.104;2022-11-15T10:16:33;30.60;;;23.13;;
3121;SDS011;1571;52.524;14.104;2022-11-15T10:19:15;26.83;;;21.33;;
3121;SDS011;1571;52.524;14.104;2022-11-15T10:21:52;27.30;;;21.13;;
3121;SDS011;1571;52.524;14.104;2022-11-15T10:24:28;30.63;;;23.10;;
3121;SDS011;1571;52.524;14.104;2022-11-15T10:27:03;27.87;;;22.23;;
3121;SDS011;1571;52.524;14.104;2022-11-15T10:29:40;29.20;;;21.87;;
3121;SDS011;1571;52.524;14.104;2022-11-15T10:32:10;25.50;;;20.00;;
3121;SDS011;1571;52.524;14.104;2022-11-15T10:34:39;24.70;;;19.10;;
3121;SDS011;1571;52.524;14.104;2022-11-15T10:37:09;28.77;;;20.43;;
3121;SDS011;1571;52.524;14.104;2022-11-15T10:39:38;24.77;;;20.03;;
3121;SDS011;1571;52.524;14.104;2022-11-15T10:42:17;25.40;;;20.07;;
3121;SDS011;1571;52.524;14.104;2022-11-15T10:44:52;23.70;;;18.60;;
3121;SDS011;1571;52.524;14.104;2022-11-15T10:47:22;21.33;;;18.20;;
3121;SDS011;1571;52.524;14.104;2022-11-15T10:49:54;25.23;;;19.97;;
3121;SDS011;1571;52.524;14.104;2022-11-15T10:52:28;20.50;;;17.77;;
3121;SDS011;1571;52.524;14.104;2022-11-15T10:55:00;23.10;;;17.87;;
3121;SDS011;1571;52.524;14.104;2022-11-15T10:57:32;22.00;;;18.00;;
3121;SDS011;1571;52.524;14.104;2022-11-15T11:00:05;24.80;;;19.40;;
3121;SDS011;1571;52.524;14.104;2022-11-15T11:02:35;24.47;;;18.10;;
3121;SDS011;1571;52.524;14.104;2022-11-15T11:05:06;20.97;;;18.63;;
3121;SDS011;1571;52.524;14.104;2022-11-15T11:07:57;21.40;;;15.50;;
3121;SDS011;1571;52.524;14.104;2022-11-15T11:10:26;22.43;;;17.60;;
3121;SDS011;1571;52.524;14.104;2022-11-15T11:13:20;21.70;;;16.20;;
3121;SDS011;1571;52.524;14.104;2022-11-15T11:15:52;21.70;;;17.20;;
3121;SDS011;1571;52.524;14.104;2022-11-15T11:18:25;19.53;;;16.63;;
3121;SDS011;1571;52.524;14.104;2022-11-15T11:20:59;18.00;;;14.90;;
3121;SDS011;1571;52.524;14.104;2022-11-15T11:23:37;18.07;;;15.70;;
3121;SDS011;1571;52.524;14.104;2022-11-15T11:26:16;17.60;;;13.73;;
3121;SDS011;1571;52.524;14.104;2022-11-15T11:29:00;19.70;;;15.97;;
3121;SDS011;1571;52.524;14.104;2022-11-15T11:31:37;18.50;;;15.30;;
3121;SDS011;1571;52.524;14.104;2022-11-15T11:34:15;21.07;;;16.03;;
3121;SDS011;1571;52.524;14.104;2022-11-15T11:36:50;23.40;;;18.77;;
3121;SDS011;1571;52.524;14.104;2022-11-15T11:39:30;20.30;;;17.00;;
3121;SDS011;1571;52.524;14.104;2022-11-15T11:42:14;18.80;;;16.80;;
3121;SDS011;1571;52.524;14.104;2022-11-15T11:44:55;18.60;;;15.90;;
3121;SDS011;1571;52.524;14.104;2022-11-15T11:47:31;19.77;;;16.43;;
3121;SDS011;1571;52.524;14.104;2022-11-15T11:50:05;17.57;;;15.67;;
3121;SDS011;1571;52.524;14.104;2022-11-15T11:52:41;23.30;;;16.33;;
3121;SDS011;1571;52.524;14.104;2022-11-15T11:55:28;17.60;;;15.17;;
3121;SDS011;1571;52.524;14.104;2022-11-15T11:58:02;20.60;;;15.90;;
3121;SDS011;1571;52.524;14.104;2022-11-15T12:00:38;25.17;;;17.80;;
3121;SDS011;1571;52.524;14.104;2022-11-15T12:03:11;18.47;;;14.67;;
3121;SDS011;1571;52.524;14.104;2022-11-15T12:05:43;17.23;;;15.30;;
3121;SDS011;1571;52.524;14.104;2022-11-15T12:08:18;20.03;;;15.60;;
3121;SDS011;1571;52.524;14.104;2022-11-15T12:10:59;19.33;;;16.27;;
3121;SDS011;1571;52.524;14.104;2022-11-15T12:13:33;18.93;;;16.93;;
3121;SDS011;1571;52.524;14.104;2022-11-15T12:16:05;20.53;;;17.10;;
3121;SDS011;1571;52.524;14.104;2022-11-15T12:18:40;23.07;;;16.40;;
3121;SDS011;1571;52.524;14.104;2022-11-15T12:21:15;22.17;;;17.53;;
3121;SDS011;1571;52.524;14.104;2022-11-15T12:23:55;22.13;;;18.10;;
3121;SDS011;1571;52.524;14.104;2022-11-15T12:26:33;19.83;;;16.40;;
3121;SDS011;1571;52.524;14.104;2022-11-15T12:29:05;22.60;;;16.47;;
3121;SDS011;1571;52.524;14.104;2022-11-15T12:31:40;22.10;;;17.80;;
3121;SDS011;1571;52.524;14.104;2022-11-15T12:34:13;19.87;;;17.07;;
3121;SDS011;1571;52.524;14.104;2022-11-15T12:36:59;21.77;;;14.80;;
3121;SDS011;1571;52.524;14.104;2022-11-15T12:42:39;20.73;;;16.47;;
3121;SDS011;1571;52.524;14.104;2022-11-15T12:45:23;23.77;;;17.37;;
3121;SDS011;1571;52.524;14.104;2022-11-15T12:47:53;21.43;;;19.27;;
3121;SDS011;1571;52.524;14.104;2022-11-15T12:50:52;31.47;;;24.93;;
3121;SDS011;1571;52.524;14.104;2022-11-15T12:53:28;31.53;;;26.17;;
3121;SDS011;1571;52.524;14.104;2022-11-15T12:56:17;27.37;;;22.67;;
3121;SDS011;1571;52.524;14.104;2022-11-15T12:58:50;29.07;;;24.90;;
3121;SDS011;1571;52.524;14.104;2022-11-15T13:04:27;30.80;;;26.00;;
3121;SDS011;1571;52.524;14.104;2022-11-15T13:06:57;32.17;;;25.77;;
3121;SDS011;1571;52.524;14.104;2022-11-15T13:09:49;35.33;;;26.43;;
3121;SDS011;1571;52.524;14.104;2022-11-15T13:18:32;38.10;;;29.23;;
3121;SDS011;1571;52.524;14.104;2022-11-15T13:21:03;36.40;;;29.20;;
3121;SDS011;1571;52.524;14.104;2022-11-15T13:23:54;34.90;;;29.20;;
3121;SDS011;1571;52.524;14.104;2022-11-15T13:26:23;36.73;;;27.83;;
3121;SDS011;1571;52.524;14.104;2022-11-15T13:28:52;39.27;;;31.00;;
3121;SDS011;1571;52.524;14.104;2022-11-15T13:31:29;34.77;;;27.77;;
3121;SDS011;1571;52.524;14.104;2022-11-15T13:34:14;39.83;;;31.23;;
3121;SDS011;1571;52.524;14.104;2022-11-15T13:37:13;42.13;;;31.60;;
3121;SDS011;1571;52.524;14.104;2022-11-15T13:40:09;38.17;;;30.93;;
3121;SDS011;1571;52.524;14.104;2022-11-15T13:42:46;41.70;;;31.80;;
3121;SDS011;1571;52.524;14.104;2022-11-15T13:45:15;41.60;;;31.47;;
3121;SDS011;1571;52.524;14.104;2022-11-15T13:47:50;40.07;;;30.43;;
3121;SDS011;1571;52.524;14.104;2022-11-15T13:50:21;40.60;;;32.70;;
3121;SDS011;1571;52.524;14.104;2022-11-15T13:52:52;42.83;;;31.80;;
3121;SDS011;1571;52.524;14.104;2022-11-15T13:55:24;39.73;;;31.63;;
3121;SDS011;1571;52.524;14.104;2022-11-15T13:57:54;39.30;;;31.40;;
3121;SDS011;1571;52.524;14.104;2022-11-15T14:00:30;48.17;;;35.90;;
3121;SDS011;1571;52.524;14.104;2022-11-15T14:03:05;42.53;;;33.90;;
3121;SDS011;1571;52.524;14.104;2022-11-15T14:05:37;41.93;;;33.27;;
3121;SDS011;1571;52.524;14.104;2022-11-15T14:08:20;43.60;;;35.07;;
3121;SDS011;1571;52.524;14.104;2022-11-15T14:11:05;42.40;;;35.07;;
3121;SDS011;1571;52.524;14.104;2022-11-15T14:13:35;51.17;;;40.97;;
3121;SDS011;1571;52.524;14.104;2022-11-15T14:16:12;64.23;;;50.30;;
3121;SDS011;1571;52.524;14.104;2022-11-15T14:18:43;43.20;;;35.30;;
3121;SDS011;1571;52.524;14.104;2022-11-15T14:21:15;53.87;;;39.07;;
3121;SDS011;1571;52.524;14.104;2022-11-15T14:23:45;42.30;;;33.23;;
3121;SDS011;1571;52.524;14.104;2022-11-15T14:26:25;45.27;;;33.07;;
3121;SDS011;1571;52.524;14.104;2022-11-15T14:28:55;44.20;;;33.10;;
3121;SDS011;1571;52.524;14.104;2022-11-15T14:31:24;48.00;;;38.37;;
3121;SDS011;1571;52.524;14.104;2022-11-15T14:33:52;41.63;;;33.27;;
3121;SDS011;1571;52.524;14.104;2022-11-15T14:36:22;50.57;;;38.23;;
3121;SDS011;1571;52.524;14.104;2022-11-15T14:38:50;50.03;;;37.57;;
3121;SDS011;1571;52.524;14.104;2022-11-15T14:41:19;49.50;;;39.10;;
3121;SDS011;1571;52.524;14.104;2022-11-15T14:43:49;48.80;;;37.17;;
3121;SDS011;1571;52.524;14.104;2022-11-15T14:46:17;53.20;;;39.17;;
3121;SDS011;1571;52.524;14.104;2022-11-15T14:48:46;52.40;;;39.23;;
3121;SDS011;1571;52.524;14.104;2022-11-15T14:51:15;51.90;;;39.13;;
3121;SDS011;1571;52.524;14.104;2022-11-15T14:53:46;55.60;;;39.80;;
3121;SDS011;1571;52.524;14.104;2022-11-15T14:56:16;51.70;;;41.03;;
3121;SDS011;1571;52.524;14.104;2022-11-15T14:58:44;48.70;;;39.67;;
3121;SDS011;1571;52.524;14.104;2022-11-15T15:01:13;51.83;;;38.37;;
3121;SDS011;1571;52.524;14.104;2022-11-15T15:03:45;54.20;;;39.60;;
3121;SDS011;1571;52.524;14.104;2022-11-15T15:06:14;50.10;;;39.90;;
3121;SDS011;1571;52.524;14.104;2022-11-15T15:08:44;50.57;;;38.00;;
3121;SDS011;1571;52.524;14.104;2022-11-15T15:11:21;48.10;;;37.40;;
3121;SDS011;1571;52.524;14.104;2022-11-15T15:13:51;47.50;;;37.17;;
3121;SDS011;1571;52.524;14.104;2022-11-15T15:16:20;49.50;;;37.30;;
3121;SDS011;1571;52.524;14.104;2022-11-15T15:18:48;51.13;;;40.37;;
3121;SDS011;1571;52.524;14.104;2022-11-15T15:21:19;48.07;;;37.30;;
3121;SDS011;1571;52.524;14.104;2022-11-15T15:23:49;47.60;;;37.77;;
3121;SDS011;1571;52.524;14.104;2022-11-15T15:26:19;50.00;;;36.47;;
3121;SDS011;1571;52.524;14.104;2022-11-15T15:28:48;47.00;;;35.13;;
3121;SDS011;1571;52.524;14.104;2022-11-15T15:31:18;48.07;;;37.47;;
3121;SDS011;1571;52.524;14.104;2022-11-15T15:33:46;60.00;;;50.00;;
3121;SDS011;1571;52.524;14.104;2022-11-15T15:36:17;59.43;;;44.97;;
3121;SDS011;1571;52.524;14.104;2022-11-15T15:38:46;49.93;;;38.80;;
3121;SDS011;1571;52.524;14.104;2022-11-15T15:41:15;49.03;;;37.33;;
3121;SDS011;1571;52.524;14.104;2022-11-15T15:43:45;53.80;;;37.63;;
3121;SDS011;1571;52.524;14.104;2022-11-15T15:46:15;49.57;;;36.77;;
3121;SDS011;1571;52.524;14.104;2022-11-15T15:48:44;51.77;;;37.60;;
3121;SDS011;1571;52.524;14.104;2022-11-15T15:51:13;50.80;;;36.60;;
3121;SDS011;1571;52.524;14.104;2022-11-15T15:53:46;47.40;;;34.97;;
3121;SDS011;1571;52.524;14.104;2022-11-15T15:56:15;57.03;;;37.57;;
3121;SDS011;1571;52.524;14.104;2022-11-15T15:58:43;53.30;;;37.00;;
3121;SDS011;1571;52.524;14.104;2022-11-15T16:01:12;51.83;;;36.80;;
3121;SDS011;1571;52.524;14.104;2022-11-15T16:03:41;50.00;;;37.80;;
3121;SDS011;1571;52.524;14.104;2022-11-15T16:09:02;48.03;;;35.83;;
3121;SDS011;1571;52.524;14.104;2022-11-15T16:11:42;50.27;;;34.67;;
3121;SDS011;1571;52.524;14.104;2022-11-15T16:14:11;57.33;;;39.07;;
3121;SDS011;1571;52.524;14.104;2022-11-15T16:16:41;57.60;;;39.50;;
3121;SDS011;1571;52.524;14.104;2022-11-15T16:19:09;49.27;;;36.77;;
3121;SDS011;1571;52.524;14.104;2022-11-15T16:21:39;50.10;;;36.47;;
3121;SDS011;1571;52.524;14.104;2022-11-15T16:24:07;54.20;;;38.00;;